Orbital elements of FENGYUN 1C DEB
| Launched | 9 May 1999 |
| Flight ended | – |
| Launch site | Taiyuan Space Center, PRC |
| Owner | People's Republic of China |
| NORAD ID | 31631 |
| Date fetched |
Epoch osculation |
Inc. [°] |
Ecc. | RA asc node [hr] |
Arg Peri. [°] |
Mean anom [°] |
Mean motion [rev/day] |
Abs. mag |
| Date fetched |
Epoch osculation |
Inc. [°] |
Ecc. | RA asc node [hr] |
Arg Peri. [°] |
Mean anom [°] |
Mean motion [rev/day] |
Abs. mag |
| 2026 May 03 17:57 | 2026 Apr 30 06:40:24 | 99.3369 | 0.00287 | 3.9235 | 252.9982 | 106.8081 | 14.92113 | – |
| 2026 May 02 17:57 | 2026 Apr 30 06:40:24 | 99.3369 | 0.00287 | 3.9235 | 252.9982 | 106.8081 | 14.92113 | – |
| 2026 May 01 17:56 | 2026 Apr 30 06:40:24 | 99.3369 | 0.00287 | 3.9235 | 252.9982 | 106.8081 | 14.92113 | – |
| 2026 Apr 30 17:56 | 2026 Apr 30 06:40:24 | 99.3369 | 0.00287 | 3.9235 | 252.9982 | 106.8081 | 14.92113 | – |
| 2026 Apr 29 17:57 | 2026 Apr 23 13:40:26 | 99.3379 | 0.00292 | 3.3946 | 279.4913 | 106.8081 | 14.92113 | – |
| 2026 Apr 28 17:56 | 2026 Apr 23 13:40:26 | 99.3379 | 0.00292 | 3.3946 | 279.4913 | 106.8081 | 14.92113 | – |
| 2026 Apr 27 17:58 | 2026 Apr 23 13:40:26 | 99.3379 | 0.00292 | 3.3946 | 279.4913 | 106.8081 | 14.92113 | – |
| 2026 Apr 26 17:58 | 2026 Apr 23 13:40:26 | 99.3379 | 0.00292 | 3.3946 | 279.4913 | 106.8081 | 14.92113 | – |
| 2026 Apr 25 17:58 | 2026 Apr 23 13:40:26 | 99.3379 | 0.00292 | 3.3946 | 279.4913 | 106.8081 | 14.92113 | – |
| 2026 Apr 24 17:59 | 2026 Apr 23 13:40:26 | 99.3379 | 0.00292 | 3.3946 | 279.4913 | 106.8081 | 14.92113 | – |
| 2026 Apr 23 17:57 | 2026 Apr 19 01:44:47 | 99.3388 | 0.00307 | 3.0404 | 295.8843 | 106.8081 | 14.92113 | – |
| 2026 Apr 22 17:57 | 2026 Apr 19 01:44:47 | 99.3388 | 0.00307 | 3.0404 | 295.8843 | 106.8081 | 14.92113 | – |
| 2026 Apr 21 17:57 | 2026 Apr 19 01:44:47 | 99.3388 | 0.00307 | 3.0404 | 295.8843 | 106.8081 | 14.92113 | – |
| 2026 Apr 20 17:57 | 2026 Apr 19 01:44:47 | 99.3388 | 0.00307 | 3.0404 | 295.8843 | 106.8081 | 14.92113 | – |
| 2026 Apr 19 17:58 | 2026 Apr 19 01:44:47 | 99.3388 | 0.00307 | 3.0404 | 295.8843 | 106.8081 | 14.92113 | – |
| 2026 Apr 18 17:56 | 2026 Apr 12 18:16:10 | 99.3389 | 0.00327 | 2.5438 | 316.9055 | 106.8081 | 14.92113 | – |
| 2026 Apr 16 17:57 | 2026 Apr 12 18:16:10 | 99.3389 | 0.00327 | 2.5438 | 316.9055 | 106.8081 | 14.92113 | – |
| 2026 Apr 14 17:57 | 2026 Apr 12 18:16:10 | 99.3389 | 0.00327 | 2.5438 | 316.9055 | 106.8081 | 14.92113 | – |
| 2026 Apr 13 17:57 | 2026 Apr 12 18:16:10 | 99.3389 | 0.00327 | 2.5438 | 316.9055 | 106.8081 | 14.92113 | – |
| 2026 Apr 12 17:57 | 2026 Apr 03 13:20:53 | 99.3389 | 0.00388 | 1.8206 | 343.0425 | 106.8081 | 14.92113 | – |
| 2026 Apr 11 17:57 | 2026 Apr 03 13:20:53 | 99.3389 | 0.00388 | 1.8206 | 343.0425 | 106.8081 | 14.92113 | – |
| 2026 Apr 10 17:58 | 2026 Apr 03 13:20:53 | 99.3389 | 0.00388 | 1.8206 | 343.0425 | 106.8081 | 14.92113 | – |
| 2026 Apr 09 18:01 | 2026 Apr 03 13:20:53 | 99.3389 | 0.00388 | 1.8206 | 343.0425 | 106.8081 | 14.92113 | – |
| 2026 Apr 08 17:57 | 2026 Apr 03 13:20:53 | 99.3389 | 0.00388 | 1.8206 | 343.0425 | 106.8081 | 14.92113 | – |
| 2026 Apr 07 17:57 | 2026 Apr 02 01:50:18 | 99.3410 | 0.00399 | 1.7046 | 349.4427 | 106.8081 | 14.92113 | – |
| 2026 Apr 06 17:57 | 2026 Apr 02 01:50:18 | 99.3410 | 0.00399 | 1.7046 | 349.4427 | 106.8081 | 14.92113 | – |